sensor_id;sensor_type;location;lat;lon;timestamp;P1;durP1;ratioP1;P2;durP2;ratioP2
14613;SDS011;7393;51.446;6.800;2023-06-14T00:02:02;6.97;;;4.90;;
14613;SDS011;7393;51.446;6.800;2023-06-14T00:04:29;6.80;;;4.50;;
14613;SDS011;7393;51.446;6.800;2023-06-14T00:06:56;6.07;;;4.97;;
14613;SDS011;7393;51.446;6.800;2023-06-14T00:09:23;6.37;;;5.03;;
14613;SDS011;7393;51.446;6.800;2023-06-14T00:11:50;5.70;;;4.50;;
14613;SDS011;7393;51.446;6.800;2023-06-14T00:14:18;7.67;;;4.63;;
14613;SDS011;7393;51.446;6.800;2023-06-14T00:16:45;5.97;;;4.90;;
14613;SDS011;7393;51.446;6.800;2023-06-14T00:19:12;5.83;;;4.90;;
14613;SDS011;7393;51.446;6.800;2023-06-14T00:21:39;5.43;;;4.33;;
14613;SDS011;7393;51.446;6.800;2023-06-14T00:24:07;5.73;;;4.37;;
14613;SDS011;7393;51.446;6.800;2023-06-14T00:26:34;5.93;;;4.70;;
14613;SDS011;7393;51.446;6.800;2023-06-14T00:29:00;5.27;;;4.13;;
14613;SDS011;7393;51.446;6.800;2023-06-14T00:31:29;7.53;;;4.87;;
14613;SDS011;7393;51.446;6.800;2023-06-14T00:33:56;8.40;;;4.80;;
14613;SDS011;7393;51.446;6.800;2023-06-14T00:36:22;7.60;;;4.93;;
14613;SDS011;7393;51.446;6.800;2023-06-14T00:38:49;7.93;;;5.00;;
14613;SDS011;7393;51.446;6.800;2023-06-14T00:41:16;5.90;;;4.73;;
14613;SDS011;7393;51.446;6.800;2023-06-14T00:43:43;8.70;;;5.07;;
14613;SDS011;7393;51.446;6.800;2023-06-14T00:46:10;4.73;;;4.20;;
14613;SDS011;7393;51.446;6.800;2023-06-14T00:48:38;6.47;;;4.97;;
14613;SDS011;7393;51.446;6.800;2023-06-14T00:51:06;5.77;;;5.07;;
14613;SDS011;7393;51.446;6.800;2023-06-14T00:53:33;6.47;;;4.60;;
14613;SDS011;7393;51.446;6.800;2023-06-14T00:56:00;7.33;;;4.50;;
14613;SDS011;7393;51.446;6.800;2023-06-14T00:58:28;7.27;;;4.87;;
14613;SDS011;7393;51.446;6.800;2023-06-14T01:00:55;7.73;;;4.90;;
14613;SDS011;7393;51.446;6.800;2023-06-14T01:03:23;5.77;;;4.50;;
14613;SDS011;7393;51.446;6.800;2023-06-14T01:05:53;4.87;;;4.37;;
14613;SDS011;7393;51.446;6.800;2023-06-14T01:08:28;5.70;;;4.20;;
14613;SDS011;7393;51.446;6.800;2023-06-14T01:11:05;5.27;;;4.70;;
14613;SDS011;7393;51.446;6.800;2023-06-14T01:13:40;5.70;;;4.63;;
14613;SDS011;7393;51.446;6.800;2023-06-14T01:16:10;5.90;;;4.87;;
14613;SDS011;7393;51.446;6.800;2023-06-14T01:18:37;5.80;;;4.13;;
14613;SDS011;7393;51.446;6.800;2023-06-14T01:21:19;5.50;;;3.90;;
14613;SDS011;7393;51.446;6.800;2023-06-14T01:23:48;4.70;;;4.20;;
14613;SDS011;7393;51.446;6.800;2023-06-14T01:26:18;8.03;;;4.27;;
14613;SDS011;7393;51.446;6.800;2023-06-14T01:28:46;7.37;;;4.77;;
14613;SDS011;7393;51.446;6.800;2023-06-14T01:31:16;7.37;;;4.63;;
14613;SDS011;7393;51.446;6.800;2023-06-14T01:33:46;5.00;;;3.90;;
14613;SDS011;7393;51.446;6.800;2023-06-14T01:36:14;5.00;;;3.93;;
14613;SDS011;7393;51.446;6.800;2023-06-14T01:38:43;7.63;;;4.23;;
14613;SDS011;7393;51.446;6.800;2023-06-14T01:41:13;6.73;;;4.20;;
14613;SDS011;7393;51.446;6.800;2023-06-14T01:43:40;5.30;;;4.23;;
14613;SDS011;7393;51.446;6.800;2023-06-14T01:46:08;7.43;;;4.20;;
14613;SDS011;7393;51.446;6.800;2023-06-14T01:48:36;4.67;;;4.10;;
14613;SDS011;7393;51.446;6.800;2023-06-14T01:51:04;7.73;;;4.37;;
14613;SDS011;7393;51.446;6.800;2023-06-14T01:53:30;4.20;;;3.80;;
14613;SDS011;7393;51.446;6.800;2023-06-14T01:55:57;7.93;;;4.00;;
14613;SDS011;7393;51.446;6.800;2023-06-14T01:58:26;6.07;;;4.13;;
14613;SDS011;7393;51.446;6.800;2023-06-14T02:00:53;5.23;;;4.03;;
14613;SDS011;7393;51.446;6.800;2023-06-14T02:03:21;9.50;;;4.13;;
14613;SDS011;7393;51.446;6.800;2023-06-14T02:05:49;4.57;;;4.17;;
14613;SDS011;7393;51.446;6.800;2023-06-14T02:08:16;4.13;;;3.73;;
14613;SDS011;7393;51.446;6.800;2023-06-14T02:10:42;6.20;;;4.10;;
14613;SDS011;7393;51.446;6.800;2023-06-14T02:13:09;5.83;;;3.77;;
14613;SDS011;7393;51.446;6.800;2023-06-14T02:15:38;5.07;;;3.63;;
14613;SDS011;7393;51.446;6.800;2023-06-14T02:18:05;4.07;;;3.53;;
14613;SDS011;7393;51.446;6.800;2023-06-14T02:20:32;5.37;;;3.50;;
14613;SDS011;7393;51.446;6.800;2023-06-14T02:22:58;5.87;;;4.30;;
14613;SDS011;7393;51.446;6.800;2023-06-14T02:25:26;4.77;;;3.70;;
14613;SDS011;7393;51.446;6.800;2023-06-14T02:27:53;4.37;;;3.60;;
14613;SDS011;7393;51.446;6.800;2023-06-14T02:30:21;7.17;;;4.63;;
14613;SDS011;7393;51.446;6.800;2023-06-14T02:32:49;5.07;;;3.50;;
14613;SDS011;7393;51.446;6.800;2023-06-14T02:35:16;6.07;;;3.90;;
14613;SDS011;7393;51.446;6.800;2023-06-14T02:37:43;5.80;;;3.43;;
14613;SDS011;7393;51.446;6.800;2023-06-14T02:40:10;4.80;;;3.60;;
14613;SDS011;7393;51.446;6.800;2023-06-14T02:42:37;7.03;;;3.70;;
14613;SDS011;7393;51.446;6.800;2023-06-14T02:45:04;8.13;;;3.97;;
14613;SDS011;7393;51.446;6.800;2023-06-14T02:47:32;5.20;;;4.10;;
14613;SDS011;7393;51.446;6.800;2023-06-14T02:50:00;8.43;;;3.90;;
14613;SDS011;7393;51.446;6.800;2023-06-14T02:52:28;4.67;;;4.13;;
14613;SDS011;7393;51.446;6.800;2023-06-14T02:54:54;7.40;;;3.80;;
14613;SDS011;7393;51.446;6.800;2023-06-14T02:57:21;8.37;;;3.90;;
14613;SDS011;7393;51.446;6.800;2023-06-14T02:59:49;4.13;;;3.70;;
14613;SDS011;7393;51.446;6.800;2023-06-14T03:02:17;3.80;;;3.40;;
14613;SDS011;7393;51.446;6.800;2023-06-14T03:04:44;5.73;;;3.67;;
14613;SDS011;7393;51.446;6.800;2023-06-14T03:07:13;6.43;;;4.07;;
14613;SDS011;7393;51.446;6.800;2023-06-14T03:09:45;4.63;;;3.60;;
14613;SDS011;7393;51.446;6.800;2023-06-14T03:12:12;5.53;;;3.57;;
14613;SDS011;7393;51.446;6.800;2023-06-14T03:14:39;7.73;;;3.83;;
14613;SDS011;7393;51.446;6.800;2023-06-14T03:17:07;7.47;;;3.60;;
14613;SDS011;7393;51.446;6.800;2023-06-14T03:19:34;4.90;;;3.47;;
14613;SDS011;7393;51.446;6.800;2023-06-14T03:22:01;4.20;;;3.47;;
14613;SDS011;7393;51.446;6.800;2023-06-14T03:24:30;6.77;;;4.07;;
14613;SDS011;7393;51.446;6.800;2023-06-14T03:27:01;8.30;;;3.90;;
14613;SDS011;7393;51.446;6.800;2023-06-14T03:29:28;3.53;;;3.23;;
14613;SDS011;7393;51.446;6.800;2023-06-14T03:31:58;3.43;;;3.13;;
14613;SDS011;7393;51.446;6.800;2023-06-14T03:34:26;4.50;;;3.43;;
14613;SDS011;7393;51.446;6.800;2023-06-14T03:36:53;4.10;;;3.50;;
14613;SDS011;7393;51.446;6.800;2023-06-14T03:39:20;5.00;;;3.63;;
14613;SDS011;7393;51.446;6.800;2023-06-14T03:41:49;3.57;;;3.03;;
14613;SDS011;7393;51.446;6.800;2023-06-14T03:44:16;3.83;;;3.00;;
14613;SDS011;7393;51.446;6.800;2023-06-14T03:46:43;4.53;;;3.33;;
14613;SDS011;7393;51.446;6.800;2023-06-14T03:49:11;5.30;;;3.80;;
14613;SDS011;7393;51.446;6.800;2023-06-14T03:51:38;6.47;;;2.93;;
14613;SDS011;7393;51.446;6.800;2023-06-14T03:54:05;4.23;;;2.97;;
14613;SDS011;7393;51.446;6.800;2023-06-14T03:56:32;3.70;;;3.20;;
14613;SDS011;7393;51.446;6.800;2023-06-14T03:59:01;7.10;;;3.37;;
14613;SDS011;7393;51.446;6.800;2023-06-14T04:01:28;6.40;;;3.30;;
14613;SDS011;7393;51.446;6.800;2023-06-14T04:03:56;5.17;;;3.10;;
14613;SDS011;7393;51.446;6.800;2023-06-14T04:06:23;4.03;;;3.00;;
14613;SDS011;7393;51.446;6.800;2023-06-14T04:08:57;4.00;;;3.03;;
14613;SDS011;7393;51.446;6.800;2023-06-14T04:11:28;3.77;;;3.10;;
14613;SDS011;7393;51.446;6.800;2023-06-14T04:13:55;4.77;;;3.17;;
14613;SDS011;7393;51.446;6.800;2023-06-14T04:16:23;4.00;;;3.33;;
14613;SDS011;7393;51.446;6.800;2023-06-14T04:18:50;5.40;;;2.83;;
14613;SDS011;7393;51.446;6.800;2023-06-14T04:21:18;7.97;;;3.20;;
14613;SDS011;7393;51.446;6.800;2023-06-14T04:23:45;5.30;;;3.13;;
14613;SDS011;7393;51.446;6.800;2023-06-14T04:26:12;3.90;;;3.17;;
14613;SDS011;7393;51.446;6.800;2023-06-14T04:28:39;7.13;;;3.03;;
14613;SDS011;7393;51.446;6.800;2023-06-14T04:31:06;5.37;;;3.20;;
14613;SDS011;7393;51.446;6.800;2023-06-14T04:33:35;3.67;;;3.07;;
14613;SDS011;7393;51.446;6.800;2023-06-14T04:36:08;5.80;;;3.30;;
14613;SDS011;7393;51.446;6.800;2023-06-14T04:38:36;4.00;;;3.10;;
14613;SDS011;7393;51.446;6.800;2023-06-14T04:41:03;6.73;;;3.27;;
14613;SDS011;7393;51.446;6.800;2023-06-14T04:43:31;3.60;;;3.20;;
14613;SDS011;7393;51.446;6.800;2023-06-14T04:46:03;5.63;;;3.00;;
14613;SDS011;7393;51.446;6.800;2023-06-14T04:48:36;4.37;;;3.20;;
14613;SDS011;7393;51.446;6.800;2023-06-14T04:51:04;4.67;;;3.30;;
14613;SDS011;7393;51.446;6.800;2023-06-14T04:53:31;5.37;;;3.43;;
14613;SDS011;7393;51.446;6.800;2023-06-14T04:55:59;6.83;;;3.03;;
14613;SDS011;7393;51.446;6.800;2023-06-14T04:58:26;4.63;;;2.80;;
14613;SDS011;7393;51.446;6.800;2023-06-14T05:00:53;4.07;;;3.20;;
14613;SDS011;7393;51.446;6.800;2023-06-14T05:03:21;7.27;;;3.10;;
14613;SDS011;7393;51.446;6.800;2023-06-14T05:05:50;8.07;;;2.90;;
14613;SDS011;7393;51.446;6.800;2023-06-14T05:08:18;4.13;;;2.93;;
14613;SDS011;7393;51.446;6.800;2023-06-14T05:10:45;5.63;;;3.20;;
14613;SDS011;7393;51.446;6.800;2023-06-14T05:13:12;3.77;;;2.90;;
14613;SDS011;7393;51.446;6.800;2023-06-14T05:15:38;7.90;;;3.07;;
14613;SDS011;7393;51.446;6.800;2023-06-14T05:18:05;6.37;;;3.20;;
14613;SDS011;7393;51.446;6.800;2023-06-14T05:20:33;5.63;;;2.67;;
14613;SDS011;7393;51.446;6.800;2023-06-14T05:23:03;3.77;;;2.97;;
14613;SDS011;7393;51.446;6.800;2023-06-14T05:25:30;4.13;;;2.87;;
14613;SDS011;7393;51.446;6.800;2023-06-14T05:27:57;8.43;;;3.17;;
14613;SDS011;7393;51.446;6.800;2023-06-14T05:30:23;5.20;;;3.13;;
14613;SDS011;7393;51.446;6.800;2023-06-14T05:32:51;4.77;;;3.17;;
14613;SDS011;7393;51.446;6.800;2023-06-14T05:35:18;12.70;;;3.30;;
14613;SDS011;7393;51.446;6.800;2023-06-14T05:37:47;4.27;;;3.00;;
14613;SDS011;7393;51.446;6.800;2023-06-14T05:40:15;5.97;;;3.20;;
14613;SDS011;7393;51.446;6.800;2023-06-14T05:42:42;3.97;;;3.03;;
14613;SDS011;7393;51.446;6.800;2023-06-14T05:45:09;5.10;;;3.13;;
14613;SDS011;7393;51.446;6.800;2023-06-14T05:47:36;6.33;;;2.60;;
14613;SDS011;7393;51.446;6.800;2023-06-14T05:50:03;7.20;;;2.93;;
14613;SDS011;7393;51.446;6.800;2023-06-14T05:52:31;6.13;;;2.90;;
14613;SDS011;7393;51.446;6.800;2023-06-14T05:54:58;5.43;;;2.90;;
14613;SDS011;7393;51.446;6.800;2023-06-14T05:57:27;7.40;;;3.20;;
14613;SDS011;7393;51.446;6.800;2023-06-14T05:59:53;7.57;;;2.90;;
14613;SDS011;7393;51.446;6.800;2023-06-14T06:02:20;4.80;;;3.00;;
14613;SDS011;7393;51.446;6.800;2023-06-14T06:04:47;4.77;;;2.90;;
14613;SDS011;7393;51.446;6.800;2023-06-14T06:07:14;4.33;;;2.97;;
14613;SDS011;7393;51.446;6.800;2023-06-14T06:09:41;7.47;;;2.77;;
14613;SDS011;7393;51.446;6.800;2023-06-14T06:12:08;4.27;;;2.93;;
14613;SDS011;7393;51.446;6.800;2023-06-14T06:14:36;5.27;;;2.80;;
14613;SDS011;7393;51.446;6.800;2023-06-14T06:17:03;5.40;;;2.93;;
14613;SDS011;7393;51.446;6.800;2023-06-14T06:19:31;5.40;;;3.17;;
14613;SDS011;7393;51.446;6.800;2023-06-14T06:21:58;8.23;;;3.10;;
14613;SDS011;7393;51.446;6.800;2023-06-14T06:24:25;4.93;;;2.97;;
14613;SDS011;7393;51.446;6.800;2023-06-14T06:26:51;4.97;;;2.50;;
14613;SDS011;7393;51.446;6.800;2023-06-14T06:29:19;5.90;;;2.90;;
14613;SDS011;7393;51.446;6.800;2023-06-14T06:31:47;5.90;;;2.83;;
14613;SDS011;7393;51.446;6.800;2023-06-14T06:34:14;5.00;;;3.00;;
14613;SDS011;7393;51.446;6.800;2023-06-14T06:36:41;8.27;;;3.00;;
14613;SDS011;7393;51.446;6.800;2023-06-14T06:39:08;8.83;;;2.90;;
14613;SDS011;7393;51.446;6.800;2023-06-14T06:41:35;3.93;;;2.73;;
14613;SDS011;7393;51.446;6.800;2023-06-14T06:44:04;4.33;;;2.40;;
14613;SDS011;7393;51.446;6.800;2023-06-14T06:46:31;9.23;;;2.93;;
14613;SDS011;7393;51.446;6.800;2023-06-14T06:49:00;5.60;;;2.43;;
14613;SDS011;7393;51.446;6.800;2023-06-14T06:51:26;5.40;;;2.40;;
14613;SDS011;7393;51.446;6.800;2023-06-14T06:53:53;5.00;;;2.40;;
14613;SDS011;7393;51.446;6.800;2023-06-14T06:56:21;4.37;;;1.93;;
14613;SDS011;7393;51.446;6.800;2023-06-14T06:58:48;4.97;;;2.30;;
14613;SDS011;7393;51.446;6.800;2023-06-14T07:01:15;3.43;;;2.07;;
14613;SDS011;7393;51.446;6.800;2023-06-14T07:03:42;5.07;;;2.40;;
14613;SDS011;7393;51.446;6.800;2023-06-14T07:06:10;2.83;;;1.80;;
14613;SDS011;7393;51.446;6.800;2023-06-14T07:08:37;3.30;;;1.90;;
14613;SDS011;7393;51.446;6.800;2023-06-14T07:11:04;3.70;;;1.90;;
14613;SDS011;7393;51.446;6.800;2023-06-14T07:13:32;4.87;;;1.80;;
14613;SDS011;7393;51.446;6.800;2023-06-14T07:15:59;3.43;;;1.67;;
14613;SDS011;7393;51.446;6.800;2023-06-14T07:18:26;3.63;;;2.03;;
14613;SDS011;7393;51.446;6.800;2023-06-14T07:20:53;2.73;;;1.77;;
14613;SDS011;7393;51.446;6.800;2023-06-14T07:23:22;3.97;;;1.77;;
14613;SDS011;7393;51.446;6.800;2023-06-14T07:25:49;1.90;;;1.70;;
14613;SDS011;7393;51.446;6.800;2023-06-14T07:28:16;2.90;;;1.67;;
14613;SDS011;7393;51.446;6.800;2023-06-14T07:30:43;3.40;;;1.80;;
14613;SDS011;7393;51.446;6.800;2023-06-14T07:33:10;3.03;;;1.70;;
14613;SDS011;7393;51.446;6.800;2023-06-14T07:35:37;3.77;;;1.87;;
14613;SDS011;7393;51.446;6.800;2023-06-14T07:38:04;3.47;;;1.80;;
14613;SDS011;7393;51.446;6.800;2023-06-14T07:40:32;5.77;;;1.80;;
14613;SDS011;7393;51.446;6.800;2023-06-14T07:42:59;5.07;;;1.80;;
14613;SDS011;7393;51.446;6.800;2023-06-14T07:45:26;2.57;;;1.67;;
14613;SDS011;7393;51.446;6.800;2023-06-14T07:47:53;3.00;;;1.77;;
14613;SDS011;7393;51.446;6.800;2023-06-14T07:50:23;1.80;;;1.63;;
14613;SDS011;7393;51.446;6.800;2023-06-14T07:52:50;5.50;;;1.80;;
14613;SDS011;7393;51.446;6.800;2023-06-14T07:55:17;2.17;;;1.67;;
14613;SDS011;7393;51.446;6.800;2023-06-14T07:57:45;2.17;;;1.50;;
14613;SDS011;7393;51.446;6.800;2023-06-14T08:00:12;1.57;;;1.47;;
14613;SDS011;7393;51.446;6.800;2023-06-14T08:02:40;2.20;;;1.60;;
14613;SDS011;7393;51.446;6.800;2023-06-14T08:05:08;3.67;;;1.90;;
14613;SDS011;7393;51.446;6.800;2023-06-14T08:07:36;6.10;;;1.90;;
14613;SDS011;7393;51.446;6.800;2023-06-14T08:10:03;4.47;;;2.10;;
14613;SDS011;7393;51.446;6.800;2023-06-14T08:12:31;4.87;;;2.20;;
14613;SDS011;7393;51.446;6.800;2023-06-14T08:15:00;3.37;;;1.90;;
14613;SDS011;7393;51.446;6.800;2023-06-14T08:17:27;3.90;;;2.00;;
14613;SDS011;7393;51.446;6.800;2023-06-14T08:19:54;7.33;;;1.80;;
14613;SDS011;7393;51.446;6.800;2023-06-14T08:22:22;4.77;;;1.83;;
14613;SDS011;7393;51.446;6.800;2023-06-14T08:24:49;5.87;;;1.73;;
14613;SDS011;7393;51.446;6.800;2023-06-14T08:27:16;5.53;;;1.97;;
14613;SDS011;7393;51.446;6.800;2023-06-14T08:29:43;3.50;;;1.70;;
14613;SDS011;7393;51.446;6.800;2023-06-14T08:32:11;7.63;;;2.40;;
14613;SDS011;7393;51.446;6.800;2023-06-14T08:34:38;5.47;;;2.00;;
14613;SDS011;7393;51.446;6.800;2023-06-14T08:37:04;2.00;;;1.60;;
14613;SDS011;7393;51.446;6.800;2023-06-14T08:39:31;5.23;;;1.90;;
14613;SDS011;7393;51.446;6.800;2023-06-14T08:41:58;3.90;;;2.00;;
14613;SDS011;7393;51.446;6.800;2023-06-14T08:44:28;5.53;;;2.13;;
14613;SDS011;7393;51.446;6.800;2023-06-14T08:46:55;7.90;;;2.23;;
14613;SDS011;7393;51.446;6.800;2023-06-14T08:49:24;5.63;;;1.90;;
14613;SDS011;7393;51.446;6.800;2023-06-14T08:51:53;2.33;;;1.90;;
14613;SDS011;7393;51.446;6.800;2023-06-14T08:54:27;8.97;;;1.83;;
14613;SDS011;7393;51.446;6.800;2023-06-14T08:56:56;3.27;;;1.90;;
14613;SDS011;7393;51.446;6.800;2023-06-14T08:59:23;4.10;;;1.90;;
14613;SDS011;7393;51.446;6.800;2023-06-14T09:01:52;2.40;;;1.60;;
14613;SDS011;7393;51.446;6.800;2023-06-14T09:04:20;5.57;;;1.87;;
14613;SDS011;7393;51.446;6.800;2023-06-14T09:06:50;5.70;;;2.20;;
14613;SDS011;7393;51.446;6.800;2023-06-14T09:09:18;4.70;;;2.00;;
14613;SDS011;7393;51.446;6.800;2023-06-14T09:11:46;5.30;;;2.17;;
14613;SDS011;7393;51.446;6.800;2023-06-14T09:14:13;2.57;;;1.80;;
14613;SDS011;7393;51.446;6.800;2023-06-14T09:16:40;3.20;;;1.70;;
14613;SDS011;7393;51.446;6.800;2023-06-14T09:19:07;6.90;;;1.97;;
14613;SDS011;7393;51.446;6.800;2023-06-14T09:21:34;1.73;;;1.63;;
14613;SDS011;7393;51.446;6.800;2023-06-14T09:24:04;3.70;;;1.97;;
14613;SDS011;7393;51.446;6.800;2023-06-14T09:26:31;2.73;;;1.40;;
14613;SDS011;7393;51.446;6.800;2023-06-14T09:28:58;2.73;;;1.60;;
14613;SDS011;7393;51.446;6.800;2023-06-14T09:31:25;1.87;;;1.77;;
14613;SDS011;7393;51.446;6.800;2023-06-14T09:33:56;3.57;;;1.67;;
14613;SDS011;7393;51.446;6.800;2023-06-14T09:36:24;4.80;;;1.63;;
14613;SDS011;7393;51.446;6.800;2023-06-14T09:38:52;4.57;;;1.30;;
14613;SDS011;7393;51.446;6.800;2023-06-14T09:41:21;3.47;;;1.80;;
14613;SDS011;7393;51.446;6.800;2023-06-14T09:43:58;1.90;;;1.47;;
14613;SDS011;7393;51.446;6.800;2023-06-14T09:46:27;3.80;;;1.50;;
14613;SDS011;7393;51.446;6.800;2023-06-14T09:48:54;3.77;;;1.50;;
14613;SDS011;7393;51.446;6.800;2023-06-14T09:51:21;1.93;;;1.50;;
14613;SDS011;7393;51.446;6.800;2023-06-14T09:53:50;1.87;;;1.40;;
14613;SDS011;7393;51.446;6.800;2023-06-14T09:56:17;2.57;;;1.30;;
14613;SDS011;7393;51.446;6.800;2023-06-14T09:58:54;1.70;;;1.30;;
14613;SDS011;7393;51.446;6.800;2023-06-14T10:01:22;2.77;;;1.57;;
14613;SDS011;7393;51.446;6.800;2023-06-14T10:03:50;2.60;;;1.37;;
14613;SDS011;7393;51.446;6.800;2023-06-14T10:06:19;3.77;;;1.30;;
14613;SDS011;7393;51.446;6.800;2023-06-14T10:08:50;1.70;;;1.30;;
14613;SDS011;7393;51.446;6.800;2023-06-14T10:11:18;4.20;;;1.40;;
14613;SDS011;7393;51.446;6.800;2023-06-14T10:13:47;2.03;;;1.50;;
14613;SDS011;7393;51.446;6.800;2023-06-14T10:16:17;2.53;;;1.43;;
14613;SDS011;7393;51.446;6.800;2023-06-14T10:18:48;3.10;;;1.57;;
14613;SDS011;7393;51.446;6.800;2023-06-14T10:21:21;1.57;;;1.20;;
14613;SDS011;7393;51.446;6.800;2023-06-14T10:23:52;3.50;;;1.40;;
14613;SDS011;7393;51.446;6.800;2023-06-14T10:26:20;5.23;;;1.37;;
14613;SDS011;7393;51.446;6.800;2023-06-14T10:29:00;2.20;;;1.10;;
14613;SDS011;7393;51.446;6.800;2023-06-14T10:31:39;2.77;;;1.20;;
14613;SDS011;7393;51.446;6.800;2023-06-14T10:34:08;2.77;;;1.20;;
14613;SDS011;7393;51.446;6.800;2023-06-14T10:36:35;3.43;;;1.20;;
14613;SDS011;7393;51.446;6.800;2023-06-14T10:39:04;2.93;;;1.13;;
14613;SDS011;7393;51.446;6.800;2023-06-14T10:41:34;6.47;;;1.20;;
14613;SDS011;7393;51.446;6.800;2023-06-14T10:47:23;1.80;;;1.00;;
14613;SDS011;7393;51.446;6.800;2023-06-14T10:49:52;2.70;;;1.00;;
14613;SDS011;7393;51.446;6.800;2023-06-14T10:52:21;3.17;;;1.10;;
14613;SDS011;7393;51.446;6.800;2023-06-14T10:57:39;2.35;;;1.25;;
14613;SDS011;7393;51.446;6.800;2023-06-14T11:00:08;3.13;;;1.08;;
14613;SDS011;7393;51.446;6.800;2023-06-14T11:02:48;4.88;;;1.10;;
14613;SDS011;7393;51.446;6.800;2023-06-14T11:05:23;9.05;;;1.23;;
14613;SDS011;7393;51.446;6.800;2023-06-14T11:07:57;3.47;;;1.10;;
14613;SDS011;7393;51.446;6.800;2023-06-14T11:10:34;2.10;;;0.73;;
14613;SDS011;7393;51.446;6.800;2023-06-14T11:13:03;1.25;;;1.10;;
14613;SDS011;7393;51.446;6.800;2023-06-14T11:15:30;3.10;;;1.05;;
14613;SDS011;7393;51.446;6.800;2023-06-14T11:17:59;4.15;;;1.00;;
14613;SDS011;7393;51.446;6.800;2023-06-14T11:20:29;2.85;;;1.10;;
14613;SDS011;7393;51.446;6.800;2023-06-14T11:22:57;1.50;;;1.17;;
14613;SDS011;7393;51.446;6.800;2023-06-14T11:25:24;3.42;;;1.30;;
14613;SDS011;7393;51.446;6.800;2023-06-14T11:27:51;1.88;;;1.00;;
14613;SDS011;7393;51.446;6.800;2023-06-14T11:30:18;3.45;;;1.10;;
14613;SDS011;7393;51.446;6.800;2023-06-14T11:32:46;5.00;;;1.10;;
14613;SDS011;7393;51.446;6.800;2023-06-14T11:35:15;4.10;;;1.33;;
14613;SDS011;7393;51.446;6.800;2023-06-14T11:37:42;2.05;;;1.20;;
14613;SDS011;7393;51.446;6.800;2023-06-14T11:40:11;2.47;;;1.23;;
14613;SDS011;7393;51.446;6.800;2023-06-14T11:42:39;5.65;;;1.23;;
14613;SDS011;7393;51.446;6.800;2023-06-14T11:45:07;4.05;;;0.88;;
14613;SDS011;7393;51.446;6.800;2023-06-14T11:47:36;2.45;;;1.10;;
14613;SDS011;7393;51.446;6.800;2023-06-14T11:50:04;2.00;;;1.13;;
14613;SDS011;7393;51.446;6.800;2023-06-14T11:52:35;1.55;;;1.20;;
14613;SDS011;7393;51.446;6.800;2023-06-14T11:55:03;4.20;;;1.10;;
14613;SDS011;7393;51.446;6.800;2023-06-14T11:57:30;5.80;;;1.10;;
14613;SDS011;7393;51.446;6.800;2023-06-14T12:00:02;2.13;;;1.00;;
14613;SDS011;7393;51.446;6.800;2023-06-14T12:02:32;1.58;;;1.10;;
14613;SDS011;7393;51.446;6.800;2023-06-14T12:05:03;2.75;;;1.30;;
14613;SDS011;7393;51.446;6.800;2023-06-14T12:07:32;2.53;;;1.05;;
14613;SDS011;7393;51.446;6.800;2023-06-14T12:10:04;6.68;;;1.10;;
14613;SDS011;7393;51.446;6.800;2023-06-14T12:12:34;2.72;;;1.08;;
14613;SDS011;7393;51.446;6.800;2023-06-14T12:15:02;3.95;;;1.20;;
14613;SDS011;7393;51.446;6.800;2023-06-14T12:17:31;2.25;;;1.20;;
14613;SDS011;7393;51.446;6.800;2023-06-14T12:19:59;1.23;;;0.93;;
14613;SDS011;7393;51.446;6.800;2023-06-14T12:22:36;3.42;;;1.20;;
14613;SDS011;7393;51.446;6.800;2023-06-14T12:25:03;4.25;;;1.30;;
14613;SDS011;7393;51.446;6.800;2023-06-14T12:27:30;3.08;;;1.38;;
14613;SDS011;7393;51.446;6.800;2023-06-14T12:29:58;2.85;;;1.30;;
14613;SDS011;7393;51.446;6.800;2023-06-14T12:32:26;2.25;;;1.45;;
14613;SDS011;7393;51.446;6.800;2023-06-14T12:34:53;2.13;;;1.15;;
14613;SDS011;7393;51.446;6.800;2023-06-14T12:37:20;1.25;;;1.15;;
14613;SDS011;7393;51.446;6.800;2023-06-14T12:39:48;3.53;;;1.30;;
14613;SDS011;7393;51.446;6.800;2023-06-14T12:42:15;1.30;;;1.20;;
14613;SDS011;7393;51.446;6.800;2023-06-14T12:44:43;2.03;;;1.30;;
14613;SDS011;7393;51.446;6.800;2023-06-14T12:47:10;2.00;;;1.40;;
14613;SDS011;7393;51.446;6.800;2023-06-14T12:49:36;2.97;;;1.13;;
14613;SDS011;7393;51.446;6.800;2023-06-14T12:52:03;1.60;;;1.20;;
14613;SDS011;7393;51.446;6.800;2023-06-14T12:54:31;2.35;;;1.40;;
14613;SDS011;7393;51.446;6.800;2023-06-14T12:56:59;1.45;;;1.30;;
14613;SDS011;7393;51.446;6.800;2023-06-14T12:59:25;1.98;;;1.30;;
14613;SDS011;7393;51.446;6.800;2023-06-14T13:01:57;2.08;;;1.52;;
14613;SDS011;7393;51.446;6.800;2023-06-14T13:04:25;1.73;;;1.27;;
14613;SDS011;7393;51.446;6.800;2023-06-14T13:06:52;3.13;;;1.60;;
14613;SDS011;7393;51.446;6.800;2023-06-14T13:09:19;2.95;;;1.50;;
14613;SDS011;7393;51.446;6.800;2023-06-14T13:11:46;4.18;;;1.60;;
14613;SDS011;7393;51.446;6.800;2023-06-14T13:14:14;2.03;;;1.48;;
14613;SDS011;7393;51.446;6.800;2023-06-14T13:16:41;2.42;;;1.58;;
14613;SDS011;7393;51.446;6.800;2023-06-14T13:19:08;6.03;;;1.80;;
14613;SDS011;7393;51.446;6.800;2023-06-14T13:21:34;2.42;;;1.63;;
14613;SDS011;7393;51.446;6.800;2023-06-14T13:24:01;1.70;;;1.50;;
14613;SDS011;7393;51.446;6.800;2023-06-14T13:26:28;5.20;;;1.80;;
14613;SDS011;7393;51.446;6.800;2023-06-14T13:28:55;4.50;;;2.03;;
14613;SDS011;7393;51.446;6.800;2023-06-14T13:31:23;5.20;;;1.77;;
14613;SDS011;7393;51.446;6.800;2023-06-14T13:33:50;4.30;;;1.52;;
14613;SDS011;7393;51.446;6.800;2023-06-14T13:36:17;3.80;;;1.65;;
14613;SDS011;7393;51.446;6.800;2023-06-14T13:38:44;2.47;;;1.55;;
14613;SDS011;7393;51.446;6.800;2023-06-14T13:41:11;2.28;;;1.60;;
14613;SDS011;7393;51.446;6.800;2023-06-14T13:43:37;4.28;;;1.80;;
14613;SDS011;7393;51.446;6.800;2023-06-14T13:46:04;5.15;;;1.60;;
14613;SDS011;7393;51.446;6.800;2023-06-14T13:48:32;3.95;;;1.67;;
14613;SDS011;7393;51.446;6.800;2023-06-14T13:50:59;1.50;;;1.40;;
14613;SDS011;7393;51.446;6.800;2023-06-14T13:53:28;2.55;;;1.77;;
14613;SDS011;7393;51.446;6.800;2023-06-14T13:55:55;1.98;;;1.60;;
14613;SDS011;7393;51.446;6.800;2023-06-14T13:58:22;2.03;;;1.73;;
14613;SDS011;7393;51.446;6.800;2023-06-14T14:00:49;4.22;;;1.83;;
14613;SDS011;7393;51.446;6.800;2023-06-14T14:03:16;7.65;;;1.80;;
14613;SDS011;7393;51.446;6.800;2023-06-14T14:05:46;7.00;;;1.85;;
14613;SDS011;7393;51.446;6.800;2023-06-14T14:08:12;1.73;;;1.63;;
14613;SDS011;7393;51.446;6.800;2023-06-14T14:10:39;2.83;;;1.55;;
14613;SDS011;7393;51.446;6.800;2023-06-14T14:13:06;2.75;;;1.90;;
14613;SDS011;7393;51.446;6.800;2023-06-14T14:15:33;2.13;;;1.60;;
14613;SDS011;7393;51.446;6.800;2023-06-14T14:18:00;3.58;;;1.70;;
14613;SDS011;7393;51.446;6.800;2023-06-14T14:20:29;1.58;;;1.48;;
14613;SDS011;7393;51.446;6.800;2023-06-14T14:22:57;1.80;;;1.60;;
14613;SDS011;7393;51.446;6.800;2023-06-14T14:25:24;2.58;;;1.50;;
14613;SDS011;7393;51.446;6.800;2023-06-14T14:27:51;2.90;;;1.65;;
14613;SDS011;7393;51.446;6.800;2023-06-14T14:30:18;3.38;;;1.80;;
14613;SDS011;7393;51.446;6.800;2023-06-14T14:32:48;4.55;;;1.48;;
14613;SDS011;7393;51.446;6.800;2023-06-14T14:35:16;2.95;;;1.60;;
14613;SDS011;7393;51.446;6.800;2023-06-14T14:37:42;2.00;;;1.70;;
14613;SDS011;7393;51.446;6.800;2023-06-14T14:40:11;2.83;;;1.75;;
14613;SDS011;7393;51.446;6.800;2023-06-14T14:42:38;2.00;;;1.83;;
14613;SDS011;7393;51.446;6.800;2023-06-14T14:45:06;2.85;;;1.80;;
14613;SDS011;7393;51.446;6.800;2023-06-14T14:47:33;1.77;;;1.67;;
14613;SDS011;7393;51.446;6.800;2023-06-14T14:50:00;3.97;;;1.60;;
14613;SDS011;7393;51.446;6.800;2023-06-14T14:52:27;5.70;;;1.80;;
14613;SDS011;7393;51.446;6.800;2023-06-14T14:54:53;1.85;;;1.73;;
14613;SDS011;7393;51.446;6.800;2023-06-14T14:57:22;3.67;;;1.90;;
14613;SDS011;7393;51.446;6.800;2023-06-14T14:59:49;2.20;;;1.73;;
14613;SDS011;7393;51.446;6.800;2023-06-14T15:02:15;3.13;;;1.80;;
14613;SDS011;7393;51.446;6.800;2023-06-14T15:04:42;3.67;;;1.60;;
14613;SDS011;7393;51.446;6.800;2023-06-14T15:07:09;1.70;;;1.60;;
14613;SDS011;7393;51.446;6.800;2023-06-14T15:09:36;1.60;;;1.50;;
14613;SDS011;7393;51.446;6.800;2023-06-14T15:12:05;3.88;;;1.80;;